sensor_id;sensor_type;location;lat;lon;timestamp;pressure;altitude;pressure_sealevel;temperature;humidity
21594;BME280;10959;51.328;7.322;2023-03-04T00:02:20;99591.63;;;5.22;71.35
21594;BME280;10959;51.328;7.322;2023-03-04T00:04:47;99582.84;;;5.14;71.54
21594;BME280;10959;51.328;7.322;2023-03-04T00:07:13;99593.63;;;5.08;71.81
21594;BME280;10959;51.328;7.322;2023-03-04T00:09:43;99589.84;;;5.21;71.52
21594;BME280;10959;51.328;7.322;2023-03-04T00:12:10;99584.66;;;5.12;71.72
21594;BME280;10959;51.328;7.322;2023-03-04T00:14:36;99589.00;;;5.19;71.24
21594;BME280;10959;51.328;7.322;2023-03-04T00:17:04;99582.84;;;5.14;71.42
21594;BME280;10959;51.328;7.322;2023-03-04T00:19:31;99587.19;;;5.21;71.08
21594;BME280;10959;51.328;7.322;2023-03-04T00:21:59;99572.03;;;5.23;71.14
21594;BME280;10959;51.328;7.322;2023-03-04T00:24:25;99576.31;;;5.33;70.91
21594;BME280;10959;51.328;7.322;2023-03-04T00:26:52;99578.94;;;5.36;70.77
21594;BME280;10959;51.328;7.322;2023-03-04T00:29:18;99575.44;;;5.31;70.67
21594;BME280;10959;51.328;7.322;2023-03-04T00:31:46;99571.81;;;5.35;70.62
21594;BME280;10959;51.328;7.322;2023-03-04T00:34:14;99568.31;;;5.33;70.60
21594;BME280;10959;51.328;7.322;2023-03-04T00:36:40;99573.81;;;5.21;71.18
21594;BME280;10959;51.328;7.322;2023-03-04T00:39:08;99578.19;;;5.27;71.03
21594;BME280;10959;51.328;7.322;2023-03-04T00:41:35;99578.88;;;5.40;70.88
21594;BME280;10959;51.328;7.322;2023-03-04T00:44:01;99580.47;;;5.50;70.69
21594;BME280;10959;51.328;7.322;2023-03-04T00:46:28;99570.03;;;5.38;70.67
21594;BME280;10959;51.328;7.322;2023-03-04T00:48:54;99568.13;;;5.43;70.74
21594;BME280;10959;51.328;7.322;2023-03-04T00:51:22;99571.56;;;5.51;70.43
21594;BME280;10959;51.328;7.322;2023-03-04T00:53:49;99576.91;;;5.51;70.19
21594;BME280;10959;51.328;7.322;2023-03-04T00:56:16;99567.03;;;5.56;70.32
21594;BME280;10959;51.328;7.322;2023-03-04T00:58:43;99567.81;;;5.61;70.12
21594;BME280;10959;51.328;7.322;2023-03-04T01:01:09;99567.78;;;5.64;70.03
21594;BME280;10959;51.328;7.322;2023-03-04T01:03:36;99567.81;;;5.61;69.85
21594;BME280;10959;51.328;7.322;2023-03-04T01:06:05;99560.66;;;5.65;70.00
21594;BME280;10959;51.328;7.322;2023-03-04T01:08:33;99567.78;;;5.64;69.86
21594;BME280;10959;51.328;7.322;2023-03-04T01:11:00;99562.44;;;5.64;69.88
21594;BME280;10959;51.328;7.322;2023-03-04T01:13:26;99558.84;;;5.65;69.79
21594;BME280;10959;51.328;7.322;2023-03-04T01:15:53;99553.41;;;5.71;69.82
21594;BME280;10959;51.328;7.322;2023-03-04T01:18:20;99560.63;;;5.66;69.61
21594;BME280;10959;51.328;7.322;2023-03-04T01:20:46;99554.41;;;5.66;69.85
21594;BME280;10959;51.328;7.322;2023-03-04T01:23:13;99545.56;;;5.62;70.01
21594;BME280;10959;51.328;7.322;2023-03-04T01:25:41;99541.03;;;5.67;69.76
21594;BME280;10959;51.328;7.322;2023-03-04T01:28:08;99539.25;;;5.66;69.86
21594;BME280;10959;51.328;7.322;2023-03-04T01:30:35;99539.19;;;5.69;70.06
21594;BME280;10959;51.328;7.322;2023-03-04T01:33:02;99544.59;;;5.66;70.00
21594;BME280;10959;51.328;7.322;2023-03-04T01:35:28;99546.41;;;5.64;70.22
21594;BME280;10959;51.328;7.322;2023-03-04T01:37:55;99542.88;;;5.62;70.33
21594;BME280;10959;51.328;7.322;2023-03-04T01:40:21;99539.47;;;5.54;70.33
21594;BME280;10959;51.328;7.322;2023-03-04T01:42:49;99535.00;;;5.56;70.20
21594;BME280;10959;51.328;7.322;2023-03-04T01:45:17;99534.03;;;5.60;70.40
21594;BME280;10959;51.328;7.322;2023-03-04T01:47:46;99539.38;;;5.60;70.50
21594;BME280;10959;51.328;7.322;2023-03-04T01:50:18;99532.19;;;5.62;70.29
21594;BME280;10959;51.328;7.322;2023-03-04T01:52:46;99532.09;;;5.67;70.15
21594;BME280;10959;51.328;7.322;2023-03-04T01:55:15;99526.06;;;5.56;70.36
21594;BME280;10959;51.328;7.322;2023-03-04T01:57:42;99521.56;;;5.59;70.25
21594;BME280;10959;51.328;7.322;2023-03-04T02:00:17;99525.19;;;5.55;70.50
21594;BME280;10959;51.328;7.322;2023-03-04T02:02:44;99519.63;;;5.69;70.35
21594;BME280;10959;51.328;7.322;2023-03-04T02:05:11;99520.59;;;5.65;70.39
21594;BME280;10959;51.328;7.322;2023-03-04T02:07:38;99514.34;;;5.64;70.63
21594;BME280;10959;51.328;7.322;2023-03-04T02:10:06;99519.84;;;5.55;70.85
21594;BME280;10959;51.328;7.322;2023-03-04T02:12:33;99518.22;;;5.48;71.21
21594;BME280;10959;51.328;7.322;2023-03-04T02:14:59;99515.44;;;5.52;71.43
21594;BME280;10959;51.328;7.322;2023-03-04T02:17:28;99514.56;;;5.52;70.98
21594;BME280;10959;51.328;7.322;2023-03-04T02:19:58;99515.41;;;5.54;70.86
21594;BME280;10959;51.328;7.322;2023-03-04T02:22:27;99518.00;;;5.60;71.17
21594;BME280;10959;51.328;7.322;2023-03-04T02:24:59;99517.13;;;5.58;70.68
21594;BME280;10959;51.328;7.322;2023-03-04T02:27:30;99509.28;;;5.49;71.42
21594;BME280;10959;51.328;7.322;2023-03-04T02:29:56;99510.09;;;5.52;71.27
21594;BME280;10959;51.328;7.322;2023-03-04T02:32:23;99507.94;;;5.23;72.16
21594;BME280;10959;51.328;7.322;2023-03-04T02:34:50;99504.88;;;5.46;71.83
21594;BME280;10959;51.328;7.322;2023-03-04T02:37:17;99509.50;;;5.36;71.79
21594;BME280;10959;51.328;7.322;2023-03-04T02:39:47;99509.66;;;5.27;72.03
21594;BME280;10959;51.328;7.322;2023-03-04T02:42:15;99505.75;;;5.47;71.74
21594;BME280;10959;51.328;7.322;2023-03-04T02:44:44;99498.81;;;5.36;71.85
21594;BME280;10959;51.328;7.322;2023-03-04T02:47:15;99495.31;;;5.34;72.17
21594;BME280;10959;51.328;7.322;2023-03-04T02:49:43;99499.94;;;5.23;72.52
21594;BME280;10959;51.328;7.322;2023-03-04T02:52:13;99489.03;;;5.35;71.74
21594;BME280;10959;51.328;7.322;2023-03-04T02:54:42;99492.50;;;5.42;71.94
21594;BME280;10959;51.328;7.322;2023-03-04T02:57:10;99490.41;;;5.58;71.45
21594;BME280;10959;51.328;7.322;2023-03-04T02:59:38;99488.13;;;5.36;71.74
21594;BME280;10959;51.328;7.322;2023-03-04T03:02:07;99489.84;;;5.41;71.88
21594;BME280;10959;51.328;7.322;2023-03-04T03:04:35;99485.22;;;5.50;71.39
21594;BME280;10959;51.328;7.322;2023-03-04T03:07:03;99488.63;;;5.60;71.19
21594;BME280;10959;51.328;7.322;2023-03-04T03:09:29;99483.19;;;5.65;71.10
21594;BME280;10959;51.328;7.322;2023-03-04T03:11:56;99478.81;;;5.59;70.96
21594;BME280;10959;51.328;7.322;2023-03-04T03:14:22;99476.28;;;5.51;71.62
21594;BME280;10959;51.328;7.322;2023-03-04T03:16:49;99485.88;;;5.63;71.22
21594;BME280;10959;51.328;7.322;2023-03-04T03:19:16;99481.53;;;5.58;71.38
21594;BME280;10959;51.328;7.322;2023-03-04T03:21:43;99478.94;;;5.53;71.39
21594;BME280;10959;51.328;7.322;2023-03-04T03:24:09;99476.94;;;5.64;71.10
21594;BME280;10959;51.328;7.322;2023-03-04T03:26:36;99478.47;;;5.29;71.84
21594;BME280;10959;51.328;7.322;2023-03-04T03:29:04;99474.97;;;5.24;72.51
21594;BME280;10959;51.328;7.322;2023-03-04T03:31:30;99465.06;;;5.32;72.41
21594;BME280;10959;51.328;7.322;2023-03-04T03:33:56;99473.94;;;5.34;72.61
21594;BME280;10959;51.328;7.322;2023-03-04T03:36:24;99470.97;;;5.50;71.74
21594;BME280;10959;51.328;7.322;2023-03-04T03:38:51;99462.97;;;5.50;71.74
21594;BME280;10959;51.328;7.322;2023-03-04T03:41:17;99465.69;;;5.47;72.20
21594;BME280;10959;51.328;7.322;2023-03-04T03:43:44;99468.28;;;5.53;71.67
21594;BME280;10959;51.328;7.322;2023-03-04T03:46:10;99467.03;;;5.21;71.88
21594;BME280;10959;51.328;7.322;2023-03-04T03:48:37;99466.78;;;5.36;72.36
21594;BME280;10959;51.328;7.322;2023-03-04T03:51:03;99468.28;;;5.50;71.69
21594;BME280;10959;51.328;7.322;2023-03-04T03:53:31;99468.19;;;5.56;71.27
21594;BME280;10959;51.328;7.322;2023-03-04T03:55:58;99469.78;;;5.66;71.13
21594;BME280;10959;51.328;7.322;2023-03-04T03:58:24;99466.09;;;5.74;70.80
21594;BME280;10959;51.328;7.322;2023-03-04T04:00:51;99474.91;;;5.79;70.84
21594;BME280;10959;51.328;7.322;2023-03-04T04:03:18;99471.22;;;5.83;70.59
21594;BME280;10959;51.328;7.322;2023-03-04T04:05:45;99469.13;;;5.53;70.64
21594;BME280;10959;51.328;7.322;2023-03-04T04:08:12;99463.13;;;5.41;71.66
21594;BME280;10959;51.328;7.322;2023-03-04T04:10:40;99459.44;;;5.48;71.46
21594;BME280;10959;51.328;7.322;2023-03-04T04:13:07;99461.09;;;5.55;71.52
21594;BME280;10959;51.328;7.322;2023-03-04T04:15:34;99457.47;;;5.59;71.12
21594;BME280;10959;51.328;7.322;2023-03-04T04:18:00;99460.88;;;5.67;70.53
21594;BME280;10959;51.328;7.322;2023-03-04T04:20:27;99462.38;;;5.81;70.46
21594;BME280;10959;51.328;7.322;2023-03-04T04:22:54;99458.94;;;5.74;70.41
21594;BME280;10959;51.328;7.322;2023-03-04T04:25:20;99456.19;;;5.77;70.80
21594;BME280;10959;51.328;7.322;2023-03-04T04:27:48;99454.56;;;5.70;70.32
21594;BME280;10959;51.328;7.322;2023-03-04T04:30:15;99454.63;;;5.67;70.48
21594;BME280;10959;51.328;7.322;2023-03-04T04:32:41;99457.59;;;5.53;71.09
21594;BME280;10959;51.328;7.322;2023-03-04T04:35:08;99462.75;;;5.62;70.80
21594;BME280;10959;51.328;7.322;2023-03-04T04:37:35;99464.56;;;5.60;70.73
21594;BME280;10959;51.328;7.322;2023-03-04T04:40:02;99460.75;;;5.74;70.57
21594;BME280;10959;51.328;7.322;2023-03-04T04:42:29;99458.91;;;5.76;70.30
21594;BME280;10959;51.328;7.322;2023-03-04T04:44:57;99463.63;;;5.61;70.27
21594;BME280;10959;51.328;7.322;2023-03-04T04:47:23;99465.00;;;5.35;70.86
21594;BME280;10959;51.328;7.322;2023-03-04T04:49:50;99463.69;;;5.58;70.82
21594;BME280;10959;51.328;7.322;2023-03-04T04:52:17;99466.44;;;5.55;71.04
21594;BME280;10959;51.328;7.322;2023-03-04T04:54:43;99462.88;;;5.56;70.92
21594;BME280;10959;51.328;7.322;2023-03-04T04:57:09;99468.16;;;5.59;70.75
21594;BME280;10959;51.328;7.322;2023-03-04T04:59:36;99467.22;;;5.62;70.77
21594;BME280;10959;51.328;7.322;2023-03-04T05:02:04;99466.50;;;5.52;70.74
21594;BME280;10959;51.328;7.322;2023-03-04T05:04:30;99462.81;;;5.59;70.54
21594;BME280;10959;51.328;7.322;2023-03-04T05:06:57;99466.31;;;5.61;70.79
21594;BME280;10959;51.328;7.322;2023-03-04T05:09:24;99465.94;;;5.31;71.20
21594;BME280;10959;51.328;7.322;2023-03-04T05:11:50;99468.41;;;5.44;71.50
21594;BME280;10959;51.328;7.322;2023-03-04T05:14:17;99468.53;;;5.38;71.76
21594;BME280;10959;51.328;7.322;2023-03-04T05:16:43;99466.59;;;5.46;71.78
21594;BME280;10959;51.328;7.322;2023-03-04T05:19:11;99463.69;;;5.58;71.11
21594;BME280;10959;51.328;7.322;2023-03-04T05:28:21;99460.22;;;5.54;71.71
21594;BME280;10959;51.328;7.322;2023-03-04T05:30:48;99465.25;;;5.70;71.23
21594;BME280;10959;51.328;7.322;2023-03-04T05:33:16;99456.72;;;5.51;71.61
21594;BME280;10959;51.328;7.322;2023-03-04T05:35:45;99456.03;;;5.40;71.87
21594;BME280;10959;51.328;7.322;2023-03-04T05:38:14;99458.69;;;5.40;72.55
21594;BME280;10959;51.328;7.322;2023-03-04T05:40:41;99454.22;;;5.42;72.31
21594;BME280;10959;51.328;7.322;2023-03-04T05:43:09;99462.75;;;5.62;72.00
21594;BME280;10959;51.328;7.322;2023-03-04T05:45:35;99452.84;;;5.67;71.56
21594;BME280;10959;51.328;7.322;2023-03-04T05:48:03;99450.13;;;5.70;71.27
21594;BME280;10959;51.328;7.322;2023-03-04T05:50:30;99452.50;;;5.38;72.14
21594;BME280;10959;51.328;7.322;2023-03-04T05:52:58;99453.84;;;5.12;72.94
21594;BME280;10959;51.328;7.322;2023-03-04T05:55:25;99451.00;;;5.21;73.29
21594;BME280;10959;51.328;7.322;2023-03-04T05:57:52;99463.84;;;5.50;72.31
21594;BME280;10959;51.328;7.322;2023-03-04T06:00:18;99466.25;;;5.64;71.67
21594;BME280;10959;51.328;7.322;2023-03-04T06:02:45;99462.44;;;5.78;71.34
21594;BME280;10959;51.328;7.322;2023-03-04T06:05:13;99474.13;;;5.72;71.26
21594;BME280;10959;51.328;7.322;2023-03-04T06:07:39;99470.03;;;5.52;72.14
21594;BME280;10959;51.328;7.322;2023-03-04T06:10:10;99474.34;;;5.60;71.73
21594;BME280;10959;51.328;7.322;2023-03-04T06:12:37;99471.84;;;5.52;72.33
21594;BME280;10959;51.328;7.322;2023-03-04T06:15:04;99476.03;;;5.65;71.72
21594;BME280;10959;51.328;7.322;2023-03-04T06:17:31;99483.97;;;5.68;71.82
21594;BME280;10959;51.328;7.322;2023-03-04T06:19:58;99478.81;;;5.59;71.89
21594;BME280;10959;51.328;7.322;2023-03-04T06:22:24;99478.81;;;5.59;71.94
21594;BME280;10959;51.328;7.322;2023-03-04T06:24:51;99476.13;;;5.61;71.85
21594;BME280;10959;51.328;7.322;2023-03-04T06:27:19;99479.03;;;5.47;72.12
21594;BME280;10959;51.328;7.322;2023-03-04T06:29:45;99482.59;;;5.49;72.52
21594;BME280;10959;51.328;7.322;2023-03-04T06:32:12;99491.19;;;5.65;72.20
21594;BME280;10959;51.328;7.322;2023-03-04T06:34:38;99481.88;;;5.38;72.94
21594;BME280;10959;51.328;7.322;2023-03-04T06:37:05;99489.53;;;5.58;72.61
21594;BME280;10959;51.328;7.322;2023-03-04T06:39:31;99487.69;;;5.61;72.63
21594;BME280;10959;51.328;7.322;2023-03-04T06:41:58;99492.44;;;5.45;72.83
21594;BME280;10959;51.328;7.322;2023-03-04T06:44:26;99493.66;;;5.27;73.66
21594;BME280;10959;51.328;7.322;2023-03-04T06:46:52;99490.56;;;4.97;75.31
21594;BME280;10959;51.328;7.322;2023-03-04T06:49:19;99499.19;;;5.15;75.34
21594;BME280;10959;51.328;7.322;2023-03-04T06:51:45;99502.25;;;5.45;74.29
21594;BME280;10959;51.328;7.322;2023-03-04T06:54:13;99505.66;;;5.53;73.50
21594;BME280;10959;51.328;7.322;2023-03-04T06:56:39;99501.97;;;5.60;73.56
21594;BME280;10959;51.328;7.322;2023-03-04T06:59:06;99505.47;;;5.62;73.46
21594;BME280;10959;51.328;7.322;2023-03-04T07:01:34;99498.28;;;5.67;73.24
21594;BME280;10959;51.328;7.322;2023-03-04T07:04:01;99504.41;;;5.72;73.59
21594;BME280;10959;51.328;7.322;2023-03-04T07:06:27;99496.28;;;5.79;72.95
21594;BME280;10959;51.328;7.322;2023-03-04T07:08:54;99508.91;;;5.70;73.15
21594;BME280;10959;51.328;7.322;2023-03-04T07:11:22;99505.06;;;5.84;72.75
21594;BME280;10959;51.328;7.322;2023-03-04T07:13:49;99506.91;;;5.82;72.92
21594;BME280;10959;51.328;7.322;2023-03-04T07:16:18;99507.06;;;5.72;73.02
21594;BME280;10959;51.328;7.322;2023-03-04T07:18:47;99510.63;;;5.71;72.35
21594;BME280;10959;51.328;7.322;2023-03-04T07:21:15;99510.41;;;5.84;72.64
21594;BME280;10959;51.328;7.322;2023-03-04T07:23:41;99513.97;;;5.86;72.92
21594;BME280;10959;51.328;7.322;2023-03-04T07:26:08;99514.75;;;5.91;72.51
21594;BME280;10959;51.328;7.322;2023-03-04T07:28:35;99518.13;;;6.02;72.18
21594;BME280;10959;51.328;7.322;2023-03-04T07:31:10;99523.56;;;5.96;71.78
21594;BME280;10959;51.328;7.322;2023-03-04T07:33:37;99517.09;;;6.10;72.07
21594;BME280;10959;51.328;7.322;2023-03-04T07:36:05;99518.25;;;5.95;72.33
21594;BME280;10959;51.328;7.322;2023-03-04T07:38:32;99521.13;;;5.84;72.83
21594;BME280;10959;51.328;7.322;2023-03-04T07:40:59;99522.81;;;5.88;72.67
21594;BME280;10959;51.328;7.322;2023-03-04T07:43:26;99520.06;;;5.93;72.44
21594;BME280;10959;51.328;7.322;2023-03-04T07:45:58;99522.69;;;5.94;72.53
21594;BME280;10959;51.328;7.322;2023-03-04T07:48:26;99518.00;;;6.09;72.55
21594;BME280;10959;51.328;7.322;2023-03-04T07:51:02;99524.53;;;5.92;72.74
21594;BME280;10959;51.328;7.322;2023-03-04T07:53:30;99520.66;;;5.59;74.33
21594;BME280;10959;51.328;7.322;2023-03-04T07:55:57;99524.09;;;5.67;74.59
21594;BME280;10959;51.328;7.322;2023-03-04T07:58:23;99519.59;;;5.70;74.77
21594;BME280;10959;51.328;7.322;2023-03-04T08:00:50;99524.44;;;5.98;74.05
21594;BME280;10959;51.328;7.322;2023-03-04T08:03:16;99524.38;;;6.01;73.56
21594;BME280;10959;51.328;7.322;2023-03-04T08:05:43;99520.66;;;6.09;73.58
21594;BME280;10959;51.328;7.322;2023-03-04T08:08:10;99524.59;;;5.89;74.49
21594;BME280;10959;51.328;7.322;2023-03-04T08:10:37;99526.59;;;5.78;74.88
21594;BME280;10959;51.328;7.322;2023-03-04T08:13:04;99531.59;;;5.96;74.57
21594;BME280;10959;51.328;7.322;2023-03-04T08:15:31;99535.03;;;6.04;74.42
21594;BME280;10959;51.328;7.322;2023-03-04T08:17:59;99525.94;;;6.13;73.89
21594;BME280;10959;51.328;7.322;2023-03-04T08:20:26;99533.19;;;6.07;74.87
21594;BME280;10959;51.328;7.322;2023-03-04T08:22:53;99532.38;;;6.01;75.43
21594;BME280;10959;51.328;7.322;2023-03-04T08:25:19;99531.50;;;6.02;75.45
21594;BME280;10959;51.328;7.322;2023-03-04T08:27:47;99531.31;;;6.12;75.24
21594;BME280;10959;51.328;7.322;2023-03-04T08:30:14;99528.56;;;6.16;75.47
21594;BME280;10959;51.328;7.322;2023-03-04T08:32:41;99523.31;;;6.12;76.09
21594;BME280;10959;51.328;7.322;2023-03-04T08:35:07;99517.78;;;6.19;76.05
21594;BME280;10959;51.328;7.322;2023-03-04T08:37:34;99518.41;;;6.32;76.07
21594;BME280;10959;51.328;7.322;2023-03-04T08:40:00;99520.44;;;6.63;75.79
21594;BME280;10959;51.328;7.322;2023-03-04T08:42:26;99513.47;;;6.95;74.88
21594;BME280;10959;51.328;7.322;2023-03-04T08:44:54;99522.06;;;7.09;74.63
21594;BME280;10959;51.328;7.322;2023-03-04T08:47:21;99523.53;;;6.84;75.09
21594;BME280;10959;51.328;7.322;2023-03-04T08:49:47;99526.13;;;6.87;74.85
21594;BME280;10959;51.328;7.322;2023-03-04T08:52:14;99519.72;;;6.94;74.75
21594;BME280;10959;51.328;7.322;2023-03-04T08:54:40;99513.66;;;6.86;74.55
21594;BME280;10959;51.328;7.322;2023-03-04T08:57:07;99520.59;;;6.96;74.59
21594;BME280;10959;51.328;7.322;2023-03-04T08:59:33;99520.66;;;6.93;74.45
21594;BME280;10959;51.328;7.322;2023-03-04T09:02:01;99515.47;;;7.23;73.50
21594;BME280;10959;51.328;7.322;2023-03-04T09:04:27;99510.69;;;7.37;73.19
21594;BME280;10959;51.328;7.322;2023-03-04T09:06:54;99517.63;;;7.44;72.47
21594;BME280;10959;51.328;7.322;2023-03-04T09:09:20;99520.41;;;7.40;72.42
21594;BME280;10959;51.328;7.322;2023-03-04T09:11:46;99509.03;;;7.30;72.17
21594;BME280;10959;51.328;7.322;2023-03-04T09:14:13;99513.09;;;7.11;72.78
21594;BME280;10959;51.328;7.322;2023-03-04T09:16:40;99516.84;;;7.03;73.13
21594;BME280;10959;51.328;7.322;2023-03-04T09:19:07;99511.84;;;6.88;73.43
21594;BME280;10959;51.328;7.322;2023-03-04T09:21:34;99524.25;;;6.92;73.81
21594;BME280;10959;51.328;7.322;2023-03-04T09:24:00;99514.16;;;6.64;73.87
21594;BME280;10959;51.328;7.322;2023-03-04T09:26:28;99518.00;;;6.91;73.83
21594;BME280;10959;51.328;7.322;2023-03-04T09:28:56;99515.31;;;6.93;73.79
21594;BME280;10959;51.328;7.322;2023-03-04T09:31:24;99519.69;;;6.96;73.32
21594;BME280;10959;51.328;7.322;2023-03-04T09:33:52;99510.34;;;7.14;73.24
21594;BME280;10959;51.328;7.322;2023-03-04T09:36:21;99515.50;;;6.84;73.49
21594;BME280;10959;51.328;7.322;2023-03-04T09:38:48;99518.31;;;6.79;73.97
21594;BME280;10959;51.328;7.322;2023-03-04T09:41:17;99510.63;;;7.01;73.41
21594;BME280;10959;51.328;7.322;2023-03-04T09:43:47;99516.88;;;7.02;73.60
21594;BME280;10959;51.328;7.322;2023-03-04T09:46:17;99515.56;;;6.82;74.23
21594;BME280;10959;51.328;7.322;2023-03-04T09:48:50;99518.97;;;6.89;75.09
21594;BME280;10959;51.328;7.322;2023-03-04T09:51:21;99530.00;;;7.13;74.86
21594;BME280;10959;51.328;7.322;2023-03-04T09:53:58;99525.78;;;7.02;75.21
21594;BME280;10959;51.328;7.322;2023-03-04T09:56:33;99525.03;;;6.96;75.87
21594;BME280;10959;51.328;7.322;2023-03-04T09:59:04;99525.88;;;6.58;78.04
21594;BME280;10959;51.328;7.322;2023-03-04T10:01:36;99526.44;;;6.74;78.66
21594;BME280;10959;51.328;7.322;2023-03-04T10:04:09;99514.97;;;6.68;78.77
21594;BME280;10959;51.328;7.322;2023-03-04T10:06:40;99519.25;;;6.77;79.14
21594;BME280;10959;51.328;7.322;2023-03-04T10:09:12;99520.88;;;6.84;78.86
21594;BME280;10959;51.328;7.322;2023-03-04T10:11:42;99512.28;;;6.69;79.53
21594;BME280;10959;51.328;7.322;2023-03-04T10:14:31;99507.06;;;6.63;79.40
21594;BME280;10959;51.328;7.322;2023-03-04T10:17:04;99511.94;;;6.85;79.07
21594;BME280;10959;51.328;7.322;2023-03-04T10:19:37;99505.91;;;7.13;78.58
21594;BME280;10959;51.328;7.322;2023-03-04T10:22:18;99502.41;;;7.11;78.11
21594;BME280;10959;51.328;7.322;2023-03-04T10:24:45;99501.31;;;7.18;78.96
21594;BME280;10959;51.328;7.322;2023-03-04T10:27:14;99511.34;;;7.09;78.94
21594;BME280;10959;51.328;7.322;2023-03-04T10:29:42;99502.00;;;6.88;80.23
21594;BME280;10959;51.328;7.322;2023-03-04T10:32:11;99513.31;;;7.01;80.24
21594;BME280;10959;51.328;7.322;2023-03-04T10:34:39;99509.03;;;6.94;81.43
21594;BME280;10959;51.328;7.322;2023-03-04T10:37:06;99513.66;;;6.86;81.09
21594;BME280;10959;51.328;7.322;2023-03-04T10:39:39;99509.31;;;6.82;81.56
21594;BME280;10959;51.328;7.322;2023-03-04T10:42:22;99500.00;;;6.59;81.86
21594;BME280;10959;51.328;7.322;2023-03-04T10:44:52;99497.00;;;6.73;82.45
21594;BME280;10959;51.328;7.322;2023-03-04T10:47:22;99491.88;;;7.01;82.11
21594;BME280;10959;51.328;7.322;2023-03-04T10:49:50;99489.13;;;7.06;81.92
21594;BME280;10959;51.328;7.322;2023-03-04T10:52:25;99497.13;;;7.07;81.74
21594;BME280;10959;51.328;7.322;2023-03-04T10:54:55;99491.75;;;7.07;81.95
21594;BME280;10959;51.328;7.322;2023-03-04T10:57:28;99498.31;;;6.94;82.00
21594;BME280;10959;51.328;7.322;2023-03-04T10:59:58;99499.38;;;6.87;82.80
21594;BME280;10959;51.328;7.322;2023-03-04T11:02:26;99501.00;;;6.94;82.26
21594;BME280;10959;51.328;7.322;2023-03-04T11:04:55;99490.59;;;6.82;82.81
21594;BME280;10959;51.328;7.322;2023-03-04T11:07:25;99491.66;;;7.12;81.81
21594;BME280;10959;51.328;7.322;2023-03-04T11:09:53;99486.00;;;7.23;81.66
21594;BME280;10959;51.328;7.322;2023-03-04T11:12:31;99487.78;;;7.24;81.08
21594;BME280;10959;51.328;7.322;2023-03-04T11:14:58;99483.06;;;7.34;81.89
21594;BME280;10959;51.328;7.322;2023-03-04T11:17:26;99478.56;;;7.34;81.91
21594;BME280;10959;51.328;7.322;2023-03-04T11:19:56;99486.88;;;7.25;82.04
21594;BME280;10959;51.328;7.322;2023-03-04T11:22:24;99478.75;;;7.28;81.82
21594;BME280;10959;51.328;7.322;2023-03-04T11:24:58;99478.66;;;7.31;81.40
21594;BME280;10959;51.328;7.322;2023-03-04T11:27:33;99476.69;;;7.39;81.00
21594;BME280;10959;51.328;7.322;2023-03-04T11:30:15;99479.69;;;7.25;81.09
21594;BME280;10959;51.328;7.322;2023-03-04T11:32:46;99476.59;;;7.42;81.17
21594;BME280;10959;51.328;7.322;2023-03-04T11:35:23;99467.88;;;7.34;80.86
21594;BME280;10959;51.328;7.322;2023-03-04T11:37:58;99466.44;;;7.21;81.76
21594;BME280;10959;51.328;7.322;2023-03-04T11:40:33;99457.75;;;7.11;82.29
21594;BME280;10959;51.328;7.322;2023-03-04T11:43:03;99457.16;;;7.34;81.38
21594;BME280;10959;51.328;7.322;2023-03-04T11:45:49;99461.50;;;7.38;80.78
21594;BME280;10959;51.328;7.322;2023-03-04T11:48:29;99457.88;;;7.41;80.74
21594;BME280;10959;51.328;7.322;2023-03-04T11:51:01;99453.88;;;7.56;80.82
21594;BME280;10959;51.328;7.322;2023-03-04T11:53:42;99447.63;;;7.57;80.20
21594;BME280;10959;51.328;7.322;2023-03-04T11:56:19;99440.06;;;7.71;80.29
21594;BME280;10959;51.328;7.322;2023-03-04T11:59:00;99451.47;;;7.47;80.44
21594;BME280;10959;51.328;7.322;2023-03-04T12:01:36;99445.63;;;7.65;80.00
21594;BME280;10959;51.328;7.322;2023-03-04T12:04:17;99438.59;;;7.61;80.01
21594;BME280;10959;51.328;7.322;2023-03-04T12:06:58;99437.94;;;7.51;80.77
21594;BME280;10959;51.328;7.322;2023-03-04T12:09:35;99434.72;;;7.71;80.09
21594;BME280;10959;51.328;7.322;2023-03-04T12:12:22;99434.53;;;7.46;79.97
21594;BME280;10959;51.328;7.322;2023-03-04T12:15:01;99425.00;;;7.67;80.27
21594;BME280;10959;51.328;7.322;2023-03-04T12:17:47;99424.47;;;7.86;80.00
21594;BME280;10959;51.328;7.322;2023-03-04T12:20:26;99426.56;;;7.76;79.63
21594;BME280;10959;51.328;7.322;2023-03-04T12:23:04;99411.59;;;7.67;80.37
21594;BME280;10959;51.328;7.322;2023-03-04T12:25:36;99409.91;;;7.65;79.94
21594;BME280;10959;51.328;7.322;2023-03-04T12:28:44;99408.69;;;7.43;80.76
21594;BME280;10959;51.328;7.322;2023-03-04T12:31:29;99407.06;;;7.38;80.60
21594;BME280;10959;51.328;7.322;2023-03-04T12:37:14;99403.53;;;7.69;80.16
21594;BME280;10959;51.328;7.322;2023-03-04T12:39:49;99396.56;;;7.61;79.62
21594;BME280;10959;51.328;7.322;2023-03-04T12:42:20;99397.03;;;7.77;79.88
21594;BME280;10959;51.328;7.322;2023-03-04T12:44:59;99391.50;;;7.84;79.51
21594;BME280;10959;51.328;7.322;2023-03-04T12:47:32;99388.03;;;7.78;80.31
21594;BME280;10959;51.328;7.322;2023-03-04T12:50:21;99380.56;;;7.90;80.17
21594;BME280;10959;51.328;7.322;2023-03-04T12:52:56;99375.94;;;7.65;80.98
21594;BME280;10959;51.328;7.322;2023-03-04T12:55:34;99385.41;;;7.77;80.34
21594;BME280;10959;51.328;7.322;2023-03-04T12:58:01;99384.25;;;7.86;80.36
21594;BME280;10959;51.328;7.322;2023-03-04T13:00:39;99382.97;;;7.69;80.51
21594;BME280;10959;51.328;7.322;2023-03-04T13:03:11;99376.97;;;7.91;80.10
21594;BME280;10959;51.328;7.322;2023-03-04T13:06:11;99371.31;;;7.70;80.83
21594;BME280;10959;51.328;7.322;2023-03-04T13:08:50;99371.97;;;7.78;81.13
21594;BME280;10959;51.328;7.322;2023-03-04T13:11:39;99366.69;;;7.75;80.95
21594;BME280;10959;51.328;7.322;2023-03-04T13:14:07;99370.94;;;7.83;81.17
21594;BME280;10959;51.328;7.322;2023-03-04T13:16:49;99363.19;;;7.73;81.62
21594;BME280;10959;51.328;7.322;2023-03-04T13:19:42;99362.22;;;7.76;80.72
21594;BME280;10959;51.328;7.322;2023-03-04T13:22:27;99363.63;;;7.58;81.14
21594;BME280;10959;51.328;7.322;2023-03-04T13:24:55;99363.00;;;7.79;81.09
21594;BME280;10959;51.328;7.322;2023-03-04T13:27:44;99357.94;;;7.70;80.13
21594;BME280;10959;51.328;7.322;2023-03-04T13:30:41;99360.75;;;7.64;80.85
21594;BME280;10959;51.328;7.322;2023-03-04T13:33:49;99358.50;;;7.49;82.09